Latest Weather Observations for Minlaton Airport

IDS60801

Issued at 4:01 pm CST Wednesday 24 August 2016 (issued every 30 minutes, with the page automatically refreshed every 10 minutes)

About weather observations | Map of weather stations | Latest weather observations for SA | Other Formats
Station Details ID: 022031 Name: MINLATON AERO Lat: -34.75 Lon: 137.53 Height: 32.0 m
Data from the previous 72 hours. | See also: Recent months at Minlaton Airport
Date/Time
CST
Temp
°C
App
Temp
°C
Dew
Point
°C
Rel
Hum
%
Delta-T
°C
Wind Press
QNH
hPa
Press
MSL
hPa
Rain since
9am
mm
Dir  Spd
km/h
Gust
km/h
Spd
kts
Gust
kts
24/04:00pm 12.6 7.4 8.7 77 1.9 SSE 26 32 14 17 1014.7 1014.7 0.2
24/03:30pm 13.5 9.1 8.8 73 2.4 SSW 22 28 12 15 1014.6 1014.6 0.2
24/03:00pm 14.4 13.3 9.8 74 2.4 SW 6 22 3 12 1014.5 1014.5 0.2
24/02:30pm 14.1 12.3 8.1 67 3.0 SE 7 9 4 5 1014.6 1014.6 0.2
24/02:00pm 14.7 12.2 8.2 65 3.3 SE 11 15 6 8 1014.5 1014.5 0.2
24/01:30pm 14.3 11.9 8.5 68 2.9 SSE 11 17 6 9 1014.7 1014.7 0.2
24/01:00pm 15.1 13.5 10.1 72 2.6 WSW 9 13 5 7 1015.1 1015.1 0.0
24/12:30pm 13.6 11.4 9.5 76 2.1 W 11 15 6 8 1015.5 1015.5 0.0
24/12:00pm 14.1 12.4 8.5 69 2.8 E 7 9 4 5 1015.7 1015.7 0.0
24/11:30am 15.1 14.0 10.1 72 2.6 ESE 6 13 3 7 1015.8 1015.8 0.0
24/11:00am 14.9 13.4 9.3 69 2.9 ENE 7 15 4 8 1016.0 1016.0 0.0
24/10:30am 14.2 13.3 9.2 72 2.5 ESE 4 13 2 7 1016.0 1016.0 0.0
24/10:00am 13.5 11.8 9.7 78 2.0 E 9 13 5 7 1016.0 1016.0 0.0
24/09:30am 12.4 11.2 10.3 87 1.1 ESE 7 11 4 6 1016.1 1016.1 0.0
24/09:00am 11.2 10.0 10.3 94 0.5 ESE 7 11 4 6 1016.2 1016.2 0.2
24/08:30am 9.5 7.6 8.9 96 0.3 E 9 13 5 7 1016.1 1016.1 0.2
24/08:00am 7.5 4.7 7.1 97 0.2 E 11 13 6 7 1016.0 1016.0 0.2
24/07:30am 5.5 1.6 5.2 98 0.1 E 15 17 8 9 1015.8 1015.8 0.2
24/07:00am 3.3 -0.7 3.0 98 0.1 E 13 15 7 8 1015.7 1015.7 0.2
24/06:30am 3.1 -0.9 2.8 98 0.1 ESE 13 13 7 7 1015.4 1015.4 0.2
24/06:00am 3.6 -0.7 3.3 98 0.1 E 15 17 8 9 1015.3 1015.3 0.2
24/05:30am 3.7 -0.2 3.4 98 0.1 E 13 15 7 8 1015.3 1015.3 0.2
24/05:00am 3.4 -0.2 3.1 98 0.1 E 11 13 6 7 1015.2 1015.2 0.2
24/04:30am 4.4 1.8 4.1 98 0.1 S 7 9 4 5 1015.3 1015.3 0.2
24/04:00am 4.8 1.9 4.5 98 0.1 ESE 9 13 5 7 1015.1 1015.1 0.2
24/03:30am 5.1 1.1 4.7 97 0.2 E 15 15 8 8 1015.0 1015.0 0.2
24/03:00am 5.6 1.3 5.2 97 0.2 ESE 17 19 9 10 1015.1 1015.1 0.2
24/02:30am 5.5 1.2 5.1 97 0.2 ESE 17 19 9 10 1015.3 1015.3 0.2
24/02:00am 5.1 1.1 4.7 97 0.2 ESE 15 17 8 9 1015.5 1015.5 0.2
24/01:30am 5.3 0.9 4.9 97 0.2 ESE 17 19 9 10 1015.6 1015.6 0.2
24/01:00am 5.1 1.4 4.7 97 0.2 ESE 13 13 7 7 1015.8 1015.8 0.2
24/12:30am 5.5 1.5 4.9 96 0.3 ESE 15 17 8 9 1015.8 1015.8 0.2
24/12:00am 5.3 1.3 4.9 97 0.2 ESE 15 17 8 9 1015.9 1015.9 0.2
 
Date/Time
CST
Temp
°C
App
Temp
°C
Dew
Point
°C
Rel
Hum
%
Delta-T
°C
Wind Press
QNH
hPa
Press
MSL
hPa
Rain since
9am
mm
Dir  Spd
km/h
Gust
km/h
Spd
kts
Gust
kts
23/11:30pm 5.2 1.1 4.6 96 0.3 ESE 15 17 8 9 1016.1 1016.1 0.2
23/11:00pm 6.1 2.6 5.5 96 0.3 ESE 13 15 7 8 1016.4 1016.4 0.2
23/10:30pm 6.2 2.0 5.6 96 0.3 ESE 17 19 9 10 1016.4 1016.4 0.2
23/10:00pm 5.4 2.5 4.5 94 0.4 ESE 9 11 5 6 1016.5 1016.5 0.2
23/09:30pm 5.6 1.9 4.6 93 0.4 SE 13 17 7 9 1016.4 1016.4 0.2
23/09:00pm 6.4 2.9 5.4 93 0.4 SE 13 15 7 8 1016.4 1016.4 0.2
23/08:30pm 7.4 3.3 6.3 93 0.5 ESE 17 19 9 10 1016.2 1016.2 0.2
23/08:00pm 7.8 3.8 6.7 93 0.5 SE 17 19 9 10 1016.0 1016.0 0.2
23/07:30pm 7.8 3.8 6.6 92 0.6 SE 17 17 9 9 1015.9 1015.9 0.2
23/07:00pm 8.2 4.2 6.8 91 0.6 SE 17 19 9 10 1015.8 1015.8 0.2
23/06:30pm 8.7 4.8 7.0 89 0.8 SE 17 19 9 10 1015.7 1015.7 0.2
23/06:00pm 9.9 6.4 7.3 84 1.2 SE 15 17 8 9 1015.5 1015.5 0.2
23/05:30pm 11.8 8.6 8.3 79 1.7 SE 15 19 8 10 1015.2 1015.2 0.2
23/05:00pm 13.3 9.7 8.4 72 2.4 SE 17 22 9 12 1015.2 1015.2 0.2
23/04:30pm 14.0 11.1 8.2 68 2.9 SE 13 20 7 11 1015.1 1015.1 0.2
23/04:00pm 14.4 11.3 8.8 69 2.8 SSE 15 20 8 11 1015.2 1015.2 0.2
23/03:30pm 14.6 11.3 8.1 65 3.2 SSE 15 19 8 10 1015.2 1015.2 0.2
23/03:00pm 16.3 13.7 9.3 63 3.6 SSW 13 19 7 10 1015.1 1015.1 0.2
23/02:30pm 16.3 14.8 10.6 69 3.0 WSW 9 17 5 9 1015.1 1015.1 0.2
23/02:00pm 15.3 13.6 8.5 64 3.4 WSW 7 15 4 8 1015.3 1015.3 0.2
23/01:30pm 16.2 14.8 8.9 62 3.7 N 6 9 3 5 1015.5 1015.5 0.2
23/01:00pm 15.7 13.2 8.2 61 3.8 N 11 15 6 8 1015.9 1015.9 0.2
23/12:30pm 14.9 12.5 8.6 66 3.2 NE 11 17 6 9 1016.3 1016.3 0.0
23/12:00pm 14.2 11.8 8.6 69 2.8 NE 11 17 6 9 1016.6 1016.6 0.0
23/11:30am 14.6 12.7 9.0 69 2.8 NNE 9 13 5 7 1016.9 1016.9 0.0
23/11:00am 14.4 12.0 8.6 68 2.9 ENE 11 19 6 10 1017.1 1017.1 0.0
23/10:30am 14.2 12.0 9.4 73 2.5 ENE 11 17 6 9 1017.3 1017.3 0.0
23/10:00am 13.2 11.2 10.0 81 1.6 ENE 11 15 6 8 1017.3 1017.3 0.0
23/09:30am 12.3 10.0 10.5 89 0.9 NE 13 19 7 10 1017.4 1017.4 0.0
23/09:00am 10.6 8.5 9.8 95 0.4 NNE 11 13 6 7 1017.3 1017.3 0.0
23/08:30am 9.1 6.7 8.5 96 0.3 ENE 11 15 6 8 1017.1 1017.1 0.0
23/08:00am 7.2 3.6 6.8 97 0.2 ENE 15 17 8 9 1016.6 1016.6 0.0
23/07:30am 5.6 1.3 5.2 97 0.2 E 17 20 9 11 1016.2 1016.2 0.0
23/07:00am 4.8 -0.2 4.5 98 0.1 E 20 20 11 11 1016.1 1016.1 0.0
23/06:30am 4.7 0.2 4.3 97 0.2 E 17 20 9 11 1016.1 1016.1 0.0
23/06:00am 4.8 0.3 4.4 97 0.2 E 17 19 9 10 1016.0 1016.0 0.0
23/05:30am 5.6 1.3 5.2 97 0.2 ESE 17 19 9 10 1015.7 1015.7 0.0
23/05:00am 4.7 0.2 4.3 97 0.2 ESE 17 19 9 10 1015.8 1015.8 0.0
23/04:30am 4.8 0.3 4.4 97 0.2 E 17 19 9 10 1015.9 1015.9 0.0
23/04:00am 3.9 -0.4 3.5 97 0.2 E 15 17 8 9 1015.7 1015.7 0.0
23/03:30am 4.3 -0.3 3.7 96 0.2 E 17 17 9 9 1015.6 1015.6 0.0
23/03:00am 4.4 -0.5 4.0 97 0.2 E 19 20 10 11 1015.8 1015.8 0.0
23/02:30am 4.2 -0.4 3.6 96 0.2 ESE 17 17 9 9 1015.9 1015.9 0.0
23/02:00am 3.9 -0.4 3.3 96 0.2 ESE 15 15 8 8 1015.9 1015.9 0.0
23/01:30am 4.5 -0.1 3.8 95 0.3 ESE 17 17 9 9 1015.9 1015.9 0.0
23/01:00am 4.4 0.2 3.7 95 0.3 ESE 15 17 8 9 1016.0 1016.0 0.0
23/12:30am 4.2 -0.4 3.5 95 0.3 ESE 17 17 9 9 1016.0 1016.0 0.0
23/12:00am 4.7 0.5 4.0 95 0.3 ESE 15 17 8 9 1016.1 1016.1 0.0
 
Date/Time
CST
Temp
°C
App
Temp
°C
Dew
Point
°C
Rel
Hum
%
Delta-T
°C
Wind Press
QNH
hPa
Press
MSL
hPa
Rain since
9am
mm
Dir  Spd
km/h
Gust
km/h
Spd
kts
Gust
kts
22/11:30pm 4.8 0.7 4.1 95 0.3 E 15 17 8 9 1016.0 1016.0 0.0
22/11:00pm 5.6 1.6 4.9 95 0.3 E 15 17 8 9 1016.1 1016.1 0.0
22/10:30pm 5.5 1.5 4.8 95 0.3 E 15 17 8 9 1016.2 1016.2 0.0
22/10:00pm 5.7 1.3 4.8 94 0.4 ESE 17 19 9 10 1016.3 1016.3 0.0
22/09:30pm 6.0 1.7 5.1 94 0.4 ESE 17 17 9 9 1016.2 1016.2 0.0
22/09:00pm 6.2 1.9 5.2 93 0.4 ESE 17 17 9 9 1016.2 1016.2 0.0
22/08:30pm 6.1 2.1 4.9 92 0.5 ESE 15 15 8 8 1016.0 1016.0 0.0
22/08:00pm 6.5 2.6 5.3 92 0.5 ESE 15 15 8 8 1015.7 1015.7 0.0
22/07:30pm 7.0 2.7 5.3 89 0.8 SE 17 19 9 10 1015.2 1015.2 0.0
22/07:00pm 6.3 2.2 4.5 88 0.8 SE 15 17 8 9 1015.0 1015.0 0.0
22/06:30pm 7.8 4.7 5.6 86 1.0 SSE 11 13 6 7 1014.7 1014.7 0.0
22/06:00pm 9.7 6.9 7.0 83 1.3 ESE 11 13 6 7 1014.5 1014.5 0.0
22/05:30pm 11.9 8.9 7.6 75 2.1 ESE 13 17 7 9 1014.2 1014.2 0.0
22/05:00pm 13.5 10.3 8.4 71 2.5 SE 15 20 8 11 1014.0 1014.0 0.0
22/04:30pm 14.2 10.0 8.4 68 2.9 SSE 20 26 11 14 1013.9 1013.9 0.0
22/04:00pm 14.6 9.9 9.4 71 2.7 SSW 24 32 13 17 1013.6 1013.6 0.0
22/03:30pm 16.0 12.9 9.0 63 3.6 W 15 19 8 10 1013.3 1013.3 0.0
22/03:00pm 16.5 14.8 7.4 55 4.5 ESE 6 13 3 7 1013.2 1013.2 0.0
22/02:30pm 16.1 13.5 9.3 64 3.5 W 13 17 7 9 1013.1 1013.1 0.0
22/02:00pm 16.0 13.8 9.4 65 3.4 W 11 17 6 9 1013.1 1013.1 0.0
22/01:30pm 16.2 14.4 10.7 70 2.9 WSW 11 15 6 8 1013.2 1013.2 0.0
22/01:00pm 15.6 13.9 9.7 68 3.1 WSW 9 15 5 8 1013.5 1013.5 0.0
22/12:30pm 15.5 13.3 9.2 66 3.2 W 11 15 6 8 1014.0 1014.0 0.0
22/12:00pm 14.6 12.0 9.4 71 2.7 W 13 17 7 9 1014.1 1014.1 0.0
22/11:30am 16.0 14.2 7.2 56 4.4 SE 6 9 3 5 1014.3 1014.3 0.0
22/11:00am 15.5 13.7 7.3 58 4.1 NNE 6 9 3 5 1014.3 1014.3 0.0
22/10:30am 15.8 14.1 9.7 67 3.2 NNE 9 11 5 6 1014.2 1014.2 0.0
22/10:00am 14.0 11.6 8.8 71 2.6 E 11 15 6 8 1014.2 1014.2 0.0
22/09:30am 13.3 10.9 10.1 81 1.7 E 13 17 7 9 1014.0 1014.0 0.0
22/09:00am 12.1 9.5 10.8 92 0.7 E 15 19 8 10 1014.0 1014.0 0.2
22/08:30am 10.5 7.6 9.7 95 0.4 E 15 19 8 10 1013.9 1013.9 0.2
22/08:00am 8.4 4.7 7.8 96 0.3 E 17 20 9 11 1013.6 1013.6 0.2
22/07:30am 6.9 2.5 6.5 97 0.2 E 19 22 10 12 1013.3 1013.3 0.2
22/07:00am 6.2 1.1 5.8 97 0.2 E 22 24 12 13 1013.0 1013.0 0.2
22/06:30am 5.7 0.8 5.1 96 0.3 E 20 22 11 12 1012.7 1012.7 0.2
22/06:00am 5.5 0.6 4.9 96 0.3 E 20 22 11 12 1012.5 1012.5 0.2
22/05:30am 5.7 0.8 5.1 96 0.3 E 20 22 11 12 1012.3 1012.3 0.2
22/05:00am 5.7 0.8 5.0 95 0.3 E 20 22 11 12 1012.4 1012.4 0.2
22/04:30am 5.1 0.1 4.4 95 0.3 E 20 22 11 12 1012.3 1012.3 0.2
22/04:00am 5.4 0.6 4.8 96 0.3 E 19 20 10 11 1012.4 1012.4 0.2
22/03:30am 4.0 -1.1 3.0 93 0.4 E 19 20 10 11 1012.6 1012.6 0.2
22/03:00am 3.9 -1.4 2.9 93 0.4 E 20 24 11 13 1012.6 1012.6 0.2
22/02:30am 3.8 -0.9 3.1 95 0.3 E 17 19 9 10 1012.8 1012.8 0.2
22/02:00am 4.3 1.1 3.3 93 0.4 ESE 9 17 5 9 1013.0 1013.0 0.2
22/01:30am 5.3 0.3 4.4 94 0.4 ENE 20 20 11 11 1013.1 1013.1 0.2
22/01:00am 4.9 0.0 3.9 93 0.4 E 19 20 10 11 1013.3 1013.3 0.2
22/12:30am 5.2 0.7 4.3 94 0.4 ESE 17 17 9 9 1013.3 1013.3 0.2
22/12:00am 5.2 0.7 4.2 93 0.4 SE 17 17 9 9 1013.5 1013.5 0.2
 
Date/Time
CST
Temp
°C
App
Temp
°C
Dew
Point
°C
Rel
Hum
%
Delta-T
°C
Wind Press
QNH
hPa
Press
MSL
hPa
Rain since
9am
mm
Dir  Spd
km/h
Gust
km/h
Spd
kts
Gust
kts
21/11:30pm 5.2 1.0 3.9 91 0.5 SE 15 19 8 10 1013.8 1013.8 0.2
21/11:00pm 5.8 1.7 4.1 89 0.7 SE 15 17 8 9 1013.9 1013.9 0.2
21/10:30pm 5.9 1.8 2.5 79 1.4 S 13 17 7 9 1014.3 1014.3 0.2
21/10:00pm 8.2 5.3 4.6 78 1.6 SSE 9 11 5 6 1014.6 1014.6 0.2
21/09:30pm 5.9 4.7 4.5 91 0.6 CALM 0 0 0 0 1014.4 1014.4 0.2
21/09:00pm 5.8 3.2 4.4 91 0.6 E 7 9 4 5 1014.3 1014.3 0.2
21/08:30pm 5.4 2.9 3.6 88 0.8 ENE 6 9 3 5 1014.2 1014.2 0.2
21/08:00pm 7.4 5.0 5.4 87 0.9 NNE 7 9 4 5 1014.1 1014.1 0.2
21/07:30pm 8.3 5.9 6.9 91 0.7 NNE 9 11 5 6 1014.0 1014.0 0.2
21/07:00pm 7.8 7.0 6.3 90 0.7 CALM 0 0 0 0 1013.8 1013.8 0.2
21/06:30pm 8.2 7.4 6.3 88 0.9 CALM 0 0 0 0 1013.7 1013.7 0.2
21/06:00pm 10.6 10.1 8.0 84 1.3 CALM 0 0 0 0 1013.5 1013.5 0.2
21/05:30pm 12.6 12.4 8.9 78 1.9 CALM 0 0 0 0 1013.4 1013.4 0.2
21/05:00pm 14.5 14.1 9.7 73 2.5 NW 2 6 1 3 1013.3 1013.3 0.2
21/04:30pm 14.4 12.1 9.0 70 2.7 NW 11 13 6 7 1013.5 1013.5 0.2

Other Formats:

Comma delimited format used in spreadsheet applications
http://www.bom.gov.au/fwo/IDS60801/IDS60801.95659.axf

JavaScript Object Notation format (JSON) in row-major order
http://www.bom.gov.au/fwo/IDS60801/IDS60801.95659.json